Pagrindinis puslapis
METAR-TAF:

METAR-TAF

Oro uostai :

Sharjah, Jungtiniai Arabų Emyratai

platuma: 25-20N, ilguma: 055-31E, Aukštis: 35 m

Dabartinis oras

Ataskaita buvo paskelbta 1 valandą ir 16 minutes, ne 03:00 UTC
Vėjas 4 kt iš Pietryčių
Temperatūra 18°C
Drėgmė 59%
Slėgis 1015 hPa
Matomumas 10 km arba daugiau
nėra debesų žemiau 1500 m ir nėra kamuolinių lietaus debesų

METAR: OMSJ 300300Z 13004KT CAVOK 18/10 Q1015 NOSIG

Laikas: 08:16 (04:16 UTC)

Prognozė

Ataskaita buvo paskelbta 5 valandos ir 16 minutes, ne 23:00 UTC
Prognozė galioja nuo 30 metu 00 UTC su 31 metu 06 UTC
Vėjas 5 kt iš Rytų/Pietryčių
Matomumas 10 km arba daugiau
nėra debesų žemiau 1500 m ir nėra kamuolinių lietaus debesų
Tapsmas
nuo 30 metu 08 UTC su 30 metu 10 UTC
Vėjas 10 kt iš Šiaurės/Šiaurės Vakarų
Tapsmas
nuo 30 metu 15 UTC su 30 metu 17 UTC
Vėjas 5 kt iš Rytų

TAF: OMSJ 292300Z 3000/3106 12005KT CAVOK BECMG 3008/3010 34010KT BECMG 3015/3017 10005KT

Orai ataskaitas ir orų prognozės (METAR, TAF).

turimą stotys yra geltonos ir raudonos taškus žemėlapyje.

Perkelti pele per norėdami pamatyti stoties vardą.

Tada spustelėkite, norėdami matyti oro stebėjimo ir prognozės.

Norėdami pakeisti žemėlapį: spustelėkite ant žalios mygtukų su juodo kryžiaus žemyn,; žalią mygtuką su brūkšneliu, jei norite nutolinti; arba žalių rodyklių gretimoms žemėlapius.


METAR-TAF: